Time;durP1;ratioP1;P1;durP2;ratioP2;P2;SDS_P1;SDS_P2;PMS_P1;PMS_P2;Temp;Humidity;BMP_temperature;BMP_pressure;BME280_temperature;BME280_humidity;BME280_pressure;Samples;Min_cycle;Max_cycle;Signal;HPM_P1;HPM_P2
2022/09/15 00:02:09;;;;;;;37.05;19.98;;;;;;;13.59;84.56;98111.78;5111531;28;20050;-88
2022/09/15 00:04:35;;;;;;;35.80;21.75;;;;;;;13.51;84.79;98102.63;5095168;28;20047;-87
2022/09/15 00:07:01;;;;;;;35.30;20.67;;;;;;;13.49;84.69;98091.22;5114552;28;20035;-90
2022/09/15 00:09:28;;;;;;;38.43;20.80;;;;;;;13.69;84.99;98121.41;5115405;28;20050;-90
2022/09/15 00:11:54;;;;;;;35.38;19.27;;;;;;;13.53;84.76;98083.03;5115913;28;20121;-84
2022/09/15 00:14:20;;;;;;;35.50;20.05;;;;;;;13.48;84.63;98075.13;5116129;28;20133;-96
2022/09/15 00:16:46;;;;;;;39.93;20.13;;;;;;;13.74;84.68;98116.41;5116274;28;20054;-84
2022/09/15 00:19:14;;;;;;;30.95;19.42;;;;;;;13.58;84.67;98082.75;5100848;28;20063;-85
2022/09/15 00:21:41;;;;;;;30.92;19.10;;;;;;;13.78;84.62;98117.28;5118165;28;20123;-89
2022/09/15 00:24:08;;;;;;;33.97;18.58;;;;;;;13.77;84.57;98112.91;5099359;28;20521;-86
2022/09/15 00:26:35;;;;;;;35.83;20.02;;;;;;;13.77;84.58;98104.69;5063272;28;20048;-89
2022/09/15 00:29:02;;;;;;;35.55;19.60;;;;;;;13.59;84.45;98073.34;5116299;28;20035;-84
2022/09/15 00:31:30;;;;;;;32.08;18.55;;;;;;;13.73;84.41;98095.59;5098275;28;20051;-85
2022/09/15 00:33:58;;;;;;;30.42;18.08;;;;;;;13.67;84.54;98091.53;5100641;28;20036;-84
2022/09/15 00:36:26;;;;;;;32.03;17.83;;;;;;;13.65;84.66;98084.84;5118332;28;20043;-84
2022/09/15 00:38:56;;;;;;;26.58;17.23;;;;;;;13.45;84.55;98048.38;5115503;28;20059;-85
2022/09/15 00:41:23;;;;;;;29.98;17.17;;;;;;;13.70;84.58;98099.06;5068240;28;20044;-84
2022/09/15 00:43:52;;;;;;;;;;;;;;;13.80;84.58;98108.66;5122480;28;20019;-84
2022/09/15 00:46:40;;;;;;;25.92;15.00;;;;;;;13.70;84.76;98093.56;5119373;28;19955;-84
2022/09/15 00:49:09;;;;;;;25.33;15.90;;;;;;;13.76;84.85;98105.06;5118107;28;20043;-84
2022/09/15 00:51:51;;;;;;;25.10;15.80;;;;;;;13.62;84.93;98075.38;5121948;28;20039;-84
2022/09/15 00:55:07;;;;;;;25.67;14.93;;;;;;;13.68;84.80;98079.41;5121576;28;20523;-86
2022/09/15 00:58:05;;;;;;;22.38;14.93;;;;;;;13.76;84.75;98099.56;5099845;28;20039;-85
2022/09/15 01:00:35;;;;;;;21.10;13.25;;;;;;;13.76;84.96;98097.59;5102376;28;20024;-84
2022/09/15 01:03:07;;;;;;;24.20;14.32;;;;;;;13.75;84.79;98093.28;5119630;28;20015;-84
2022/09/15 01:05:41;;;;;;;27.98;15.77;;;;;;;13.52;84.67;98048.53;5121153;28;20055;-84
2022/09/15 01:08:18;;;;;;;26.13;14.68;;;;;;;13.57;84.67;98059.19;5118842;28;20059;-84
2022/09/15 01:10:45;;;;;;;31.55;16.75;;;;;;;13.73;84.79;98090.09;5118681;28;20040;-85
2022/09/15 01:13:13;;;;;;;22.00;15.02;;;;;;;13.80;85.00;98095.72;5119163;28;20039;-84
2022/09/15 01:15:51;;;;;;;28.27;15.35;;;;;;;13.81;84.85;98096.53;5119249;28;20063;-86
2022/09/15 01:18:42;;;;;;;24.40;15.50;;;;;;;13.83;84.84;98102.44;5100274;28;20483;-83
2022/09/15 01:21:17;;;;;;;22.52;15.52;;;;;;;13.82;84.86;98100.84;5102740;28;20035;-84
2022/09/15 01:24:14;;;;;;;23.35;15.07;;;;;;;13.83;84.83;98100.47;5067621;28;20168;-90
2022/09/15 01:26:53;;;;;;;26.85;14.32;;;;;;;13.75;84.50;98079.56;5115763;28;20078;-91
2022/09/15 01:30:01;;;;;;;22.00;14.57;;;;;;;13.91;84.47;98090.44;5121840;28;20040;-85
2022/09/15 01:33:02;;;;;;;22.25;13.70;;;;;;;13.93;84.39;98092.81;5121397;28;20043;-85
2022/09/15 01:35:47;;;;;;;23.10;14.35;;;;;;;13.93;84.53;98087.31;5104232;28;20044;-85
2022/09/15 01:38:29;;;;;;;20.13;13.02;;;;;;;13.67;84.46;98053.09;5121820;28;20035;-84
2022/09/15 01:41:01;;;;;;;10.68;7.45;;;;;;;13.75;82.59;98095.25;5101388;28;20039;-84
2022/09/15 01:43:29;;;;;;;14.15;5.82;;;;;;;13.69;82.36;98086.50;5105229;28;20040;-84
2022/09/15 01:45:58;;;;;;;8.02;5.45;;;;;;;13.71;82.12;98102.59;5123975;28;20047;-84
2022/09/15 01:48:27;;;;;;;5.07;3.72;;;;;;;13.48;81.32;98061.38;5103686;28;20043;-85
2022/09/15 01:50:58;;;;;;;4.88;3.50;;;;;;;13.71;81.21;98086.13;5124440;28;20031;-84
2022/09/15 01:53:27;;;;;;;6.93;3.65;;;;;;;13.69;81.23;98100.22;5073502;28;20056;-85
2022/09/15 01:56:01;;;;;;;4.38;3.13;;;;;;;13.51;81.09;98066.94;5114033;28;20515;-84
2022/09/15 01:58:28;;;;;;;4.63;3.60;;;;;;;13.40;81.12;98072.19;5119268;28;20067;-94
2022/09/15 02:01:03;;;;;;;10.57;3.78;;;;;;;13.51;81.30;98099.88;5119118;28;20036;-83
2022/09/15 02:03:59;;;;;;;6.00;3.67;;;;;;;13.40;81.43;98074.16;5126135;28;20044;-87
2022/09/15 02:06:53;;;;;;;4.40;3.30;;;;;;;13.07;81.61;98041.72;5119523;28;20497;-86
2022/09/15 02:09:29;;;;;;;5.25;3.40;;;;;;;13.35;81.50;98097.22;5118781;28;20484;-87
2022/09/15 02:12:32;;;;;;;4.30;3.33;;;;;;;13.33;81.56;98099.50;5119208;28;20580;-84
2022/09/15 02:15:06;;;;;;;4.80;3.22;;;;;;;13.10;81.73;98071.16;5112207;28;20039;-84
2022/09/15 02:17:38;;;;;;;5.65;3.05;;;;;;;13.17;81.67;98088.56;5121800;28;20023;-84
2022/09/15 02:20:08;;;;;;;6.30;3.28;;;;;;;13.06;81.87;98081.28;5121059;28;20046;-85
2022/09/15 02:22:40;;;;;;;9.88;3.33;;;;;;;12.96;82.06;98068.91;5121675;28;20122;-84
2022/09/15 02:25:15;;;;;;;5.55;3.33;;;;;;;12.99;82.40;98089.34;5124094;28;20043;-84
2022/09/15 02:28:09;;;;;;;6.22;3.00;;;;;;;13.19;82.16;98103.88;5102878;28;20048;-84
2022/09/15 02:30:41;;;;;;;5.55;2.97;;;;;;;12.87;82.20;98054.59;5121924;28;20051;-84
2022/09/15 02:33:13;;;;;;;4.93;3.30;;;;;;;13.09;82.57;98099.75;5103246;28;20023;-84
2022/09/15 02:35:40;;;;;;;4.80;3.42;;;;;;;13.13;82.44;98095.13;5105965;28;20047;-84
2022/09/15 02:38:14;;;;;;;4.97;3.33;;;;;;;12.97;82.37;98083.44;5121703;28;20046;-88
2022/09/15 02:40:46;;;;;;;8.23;3.33;;;;;;;12.88;82.48;98067.16;5124305;28;20070;-85
2022/09/15 02:43:18;;;;;;;7.75;3.17;;;;;;;13.17;82.49;98098.75;5105881;28;20420;-87
2022/09/15 02:45:44;;;;;;;7.88;3.90;;;;;;;13.00;82.19;98078.00;5104613;28;20052;-87
2022/09/15 02:48:10;;;;;;;4.55;3.40;;;;;;;13.12;82.43;98101.78;5122423;28;20047;-85
2022/09/15 02:50:37;;;;;;;5.18;3.30;;;;;;;12.90;82.33;98071.13;5106672;28;20995;-85
2022/09/15 02:53:03;;;;;;;;;;;;;;;13.08;82.32;98096.22;5126597;28;20051;-85
2022/09/15 02:55:30;;;;;;;5.82;3.10;;;;;;;12.70;82.60;98045.63;5124622;28;19924;-85
2022/09/15 02:58:04;;;;;;;5.80;3.17;;;;;;;12.91;82.87;98091.94;5101823;28;20556;-85
2022/09/15 03:00:30;;;;;;;7.20;3.40;;;;;;;12.94;82.67;98104.91;5116375;28;20041;-86
2022/09/15 03:02:57;;;;;;;7.87;3.50;;;;;;;12.79;82.84;98083.03;5105085;28;20038;-86
2022/09/15 03:05:28;;;;;;;4.85;3.10;;;;;;;12.96;83.14;98109.28;5125012;28;20113;-86
2022/09/15 03:07:56;;;;;;;4.03;2.95;;;;;;;12.71;82.55;98065.63;5105399;28;20034;-85
2022/09/15 03:10:24;;;;;;;7.47;3.20;;;;;;;12.79;82.74;98075.59;5123656;28;20046;-86
2022/09/15 03:12:52;;;;;;;4.90;3.20;;;;;;;12.89;82.97;98094.25;5068929;28;20044;-89
2022/09/15 03:15:22;;;;;;;5.00;3.55;;;;;;;12.79;82.89;98072.88;5111856;28;20050;-85
2022/09/15 03:17:49;;;;;;;4.22;3.00;;;;;;;12.94;82.79;98098.66;5088648;28;20047;-95
2022/09/15 03:20:19;;;;;;;6.10;3.33;;;;;;;13.02;82.84;98110.59;5124928;28;20023;-85
2022/09/15 03:22:46;;;;;;;4.00;3.30;;;;;;;12.96;82.65;98098.31;5120050;28;20445;-87
2022/09/15 03:25:12;;;;;;;6.47;3.15;;;;;;;12.65;82.59;98061.59;5116253;28;20101;-86
2022/09/15 03:27:41;;;;;;;6.13;3.03;;;;;;;12.67;82.66;98070.22;5116963;28;20047;-85
2022/09/15 03:30:13;;;;;;;4.68;3.15;;;;;;;12.76;83.10;98086.50;5117775;28;20083;-86
2022/09/15 03:32:40;;;;;;;4.22;3.17;;;;;;;12.75;82.87;98093.13;5106062;28;20020;-87
2022/09/15 03:35:08;;;;;;;5.60;3.60;;;;;;;12.87;83.05;98107.50;5120044;28;20040;-84
2022/09/15 03:37:35;;;;;;;3.80;3.20;;;;;;;12.59;83.26;98065.75;5098440;28;20664;-85
2022/09/15 03:40:02;;;;;;;6.00;3.53;;;;;;;12.74;83.40;98092.31;5115288;28;20047;-85
2022/09/15 03:42:29;;;;;;;4.88;3.20;;;;;;;12.63;83.15;98081.13;5099298;28;20519;-83
2022/09/15 03:44:55;;;;;;;4.65;3.10;;;;;;;12.63;83.35;98097.56;5097766;28;20047;-82
2022/09/15 03:47:25;;;;;;;4.00;3.05;;;;;;;12.72;83.32;98108.34;5124356;28;20138;-80
2022/09/15 03:49:52;;;;;;;5.20;3.60;;;;;;;12.68;83.56;98091.81;5117359;28;20039;-80
2022/09/15 03:52:18;;;;;;;5.60;3.72;;;;;;;12.70;83.29;98085.97;5121530;28;20205;-88
2022/09/15 03:54:44;;;;;;;4.47;3.40;;;;;;;12.80;82.84;98101.88;5115185;28;20462;-94
2022/09/15 03:57:11;;;;;;;7.00;3.70;;;;;;;12.64;83.16;98070.94;5118169;28;20040;-92
2022/09/15 03:59:37;;;;;;;9.80;3.72;;;;;;;12.79;83.06;98091.28;5116126;28;20531;-84
2022/09/15 04:02:03;;;;;;;4.53;3.90;;;;;;;12.76;82.96;98090.03;5112637;28;20043;-80
2022/09/15 04:04:30;;;;;;;5.82;4.10;;;;;;;12.77;82.97;98099.84;5113687;28;20036;-83
2022/09/15 04:06:56;;;;;;;6.03;4.03;;;;;;;12.80;83.17;98095.59;5121078;28;20046;-88
2022/09/15 04:09:24;;;;;;;11.60;4.18;;;;;;;12.66;83.07;98083.16;5116876;28;20108;-94
2022/09/15 04:11:50;;;;;;;6.90;4.13;;;;;;;12.66;83.18;98094.13;5116308;28;20104;-86
2022/09/15 04:14:16;;;;;;;7.18;3.95;;;;;;;12.78;83.29;98101.44;5114249;28;20122;-88
2022/09/15 04:16:47;;;;;;;8.55;4.30;;;;;;;12.78;82.83;98108.84;5123728;28;20039;-84
2022/09/15 04:19:13;;;;;;;5.38;4.22;;;;;;;12.72;83.22;98108.34;5126034;28;20031;-86
2022/09/15 04:21:46;;;;;;;7.55;4.20;;;;;;;12.74;83.79;98111.50;5126531;28;20058;-85
2022/09/15 04:24:12;;;;;;;10.52;4.53;;;;;;;12.76;83.55;98111.19;5122130;28;20046;-81
2022/09/15 04:26:38;;;;;;;8.17;3.80;;;;;;;12.45;82.95;98060.75;5122011;28;20073;-81
2022/09/15 04:29:14;;;;;;;7.00;4.70;;;;;;;12.74;83.54;98108.78;5121255;28;20289;-86
2022/09/15 04:31:40;;;;;;;5.63;4.10;;;;;;;12.67;83.49;98098.44;5120119;28;20072;-80
2022/09/15 04:34:06;;;;;;;5.80;4.40;;;;;;;12.63;83.75;98108.53;5122831;28;20046;-80
2022/09/15 04:36:34;;;;;;;7.95;4.03;;;;;;;12.45;83.77;98077.19;5117149;28;20510;-84
2022/09/15 04:39:00;;;;;;;7.78;4.45;;;;;;;12.69;83.84;98109.84;5117115;28;20092;-80
2022/09/15 04:41:27;;;;;;;10.60;3.90;;;;;;;12.75;83.52;98113.13;5094599;28;20155;-81
2022/09/15 04:43:53;;;;;;;5.82;3.90;;;;;;;12.56;83.06;98093.88;5113728;28;20114;-80
2022/09/15 04:46:19;;;;;;;7.78;3.72;;;;;;;12.78;83.14;98108.84;5113338;28;20429;-83
2022/09/15 04:48:47;;;;;;;12.20;3.53;;;;;;;12.66;83.09;98098.81;5112105;28;20052;-82
2022/09/15 04:51:16;;;;;;;11.93;3.45;;;;;;;12.75;82.65;98113.13;5118902;28;20060;-83
2022/09/15 04:53:47;;;;;;;6.47;3.50;;;;;;;12.62;82.91;98108.91;5115588;28;20039;-82
2022/09/15 04:56:16;;;;;;;6.97;3.53;;;;;;;12.61;83.41;98110.81;5113403;28;20044;-95
2022/09/15 04:59:01;;;;;;;4.72;3.38;;;;;;;12.50;83.41;98101.56;5113042;28;20471;-82
2022/09/15 05:01:29;;;;;;;5.20;3.15;;;;;;;12.52;83.68;98093.00;5113559;28;20036;-81
2022/09/15 05:03:56;;;;;;;8.82;2.90;;;;;;;12.69;83.30;98115.34;5112325;28;20062;-88
2022/09/15 05:06:25;;;;;;;3.67;2.90;;;;;;;12.61;83.06;98080.66;5092131;28;20558;-81
2022/09/15 05:08:55;;;;;;;7.35;2.80;;;;;;;12.74;82.67;98105.25;5075302;28;20135;-81
2022/09/15 05:11:22;;;;;;;3.95;2.50;;;;;;;12.60;82.25;98101.03;5112484;28;20159;-95
2022/09/15 05:13:48;;;;;;;5.45;2.30;;;;;;;12.58;83.17;98108.00;5089863;28;20176;-94
2022/09/15 05:16:20;;;;;;;5.32;2.25;;;;;;;12.22;83.16;98061.38;5085473;28;20100;-95
2022/09/15 05:18:48;;;;;;;3.97;2.13;;;;;;;12.31;83.50;98083.09;5082897;28;20515;-83
2022/09/15 05:21:16;;;;;;;4.47;2.55;;;;;;;12.21;83.56;98072.66;5119498;28;20059;-82
2022/09/15 05:23:43;;;;;;;4.63;2.25;;;;;;;12.45;83.80;98107.34;5118781;28;20039;-83
2022/09/15 05:26:15;;;;;;;3.88;2.13;;;;;;;12.52;83.23;98121.19;5101147;28;20096;-82
2022/09/15 05:31:12;;;;;;;4.40;2.00;;;;;;;12.42;83.35;98117.06;5118753;28;20046;-82
2022/09/15 05:33:42;;;;;;;2.97;2.30;;;;;;;12.46;83.45;98117.94;5101532;28;20096;-86
2022/09/15 05:36:08;;;;;;;5.45;1.92;;;;;;;12.44;83.22;98106.50;5118617;28;20031;-86
2022/09/15 05:38:34;;;;;;;2.95;2.00;;;;;;;12.48;83.12;98114.03;5084717;28;20038;-81
2022/09/15 05:41:09;;;;;;;3.17;1.85;;;;;;;12.21;83.05;98067.19;5122015;28;20043;-89
2022/09/15 05:43:40;;;;;;;3.92;1.95;;;;;;;12.44;83.03;98102.97;5123717;28;20035;-82
2022/09/15 05:46:07;;;;;;;4.18;1.73;;;;;;;12.48;82.64;98127.72;5087181;28;20058;-83
2022/09/15 05:48:33;;;;;;;1.90;1.70;;;;;;;12.30;82.88;98087.00;5120984;28;20135;-82
2022/09/15 05:50:59;;;;;;;2.33;1.90;;;;;;;12.55;83.11;98123.22;5119269;28;20043;-82
2022/09/15 05:53:26;;;;;;;3.50;2.10;;;;;;;12.55;83.21;98119.69;5103041;28;20123;-87
2022/09/15 05:56:04;;;;;;;3.25;1.77;;;;;;;12.50;82.98;98123.50;5101792;28;20044;-83
2022/09/15 05:58:30;;;;;;;4.63;2.30;;;;;;;12.44;83.37;98109.25;5117661;28;20419;-82
2022/09/15 06:01:06;;;;;;;2.88;1.85;;;;;;;12.61;83.48;98124.53;5098528;28;20134;-82
2022/09/15 06:03:33;;;;;;;4.30;2.38;;;;;;;12.60;82.43;98120.22;5100932;28;20042;-83
2022/09/15 06:06:04;;;;;;;6.20;2.45;;;;;;;12.59;82.03;98126.06;5119167;28;20092;-83
2022/09/15 06:08:39;;;;;;;5.15;1.90;;;;;;;12.66;82.41;98123.47;5117937;28;20047;-96
2022/09/15 06:11:12;;;;;;;8.77;2.20;;;;;;;12.51;82.39;98089.44;5127977;28;20084;-95
2022/09/15 06:13:39;;;;;;;6.47;2.33;;;;;;;12.60;81.99;98113.94;5118293;28;20088;-96
2022/09/15 06:16:11;;;;;;;1.83;1.58;;;;;;;12.61;82.39;98126.47;5099111;28;20038;-82
2022/09/15 06:18:38;;;;;;;2.47;1.60;;;;;;;12.54;82.77;98129.06;5115249;28;20032;-81
2022/09/15 06:21:07;;;;;;;3.50;1.80;;;;;;;12.57;82.59;98123.66;5097572;28;20492;-81
2022/09/15 06:23:33;;;;;;;2.47;1.80;;;;;;;12.66;82.50;98132.50;5115268;28;20621;-82
2022/09/15 06:26:11;;;;;;;2.13;1.80;;;;;;;12.70;82.34;98122.41;5079990;28;20050;-82
2022/09/15 06:28:39;;;;;;;2.10;1.60;;;;;;;12.72;82.03;98118.53;5097015;28;20035;-82
2022/09/15 06:31:13;;;;;;;6.22;1.90;;;;;;;12.90;83.05;98128.75;5097074;28;20093;-82
2022/09/15 06:33:44;;;;;;;5.00;1.90;;;;;;;12.82;81.85;98128.94;5081174;28;20039;-96
2022/09/15 06:36:12;;;;;;;3.30;2.13;;;;;;;12.85;81.84;98137.25;5117144;28;20047;-82
2022/09/15 06:38:39;;;;;;;3.38;2.03;;;;;;;12.86;81.79;98144.31;5115549;28;20036;-82
2022/09/15 06:41:05;;;;;;;;;;;;;;;12.84;82.06;98137.59;5115271;28;20040;-92
2022/09/15 06:43:32;;;;;;;4.55;2.05;;;;;;;12.87;82.13;98137.69;5116960;28;19915;-82
2022/09/15 06:46:13;;;;;;;4.63;2.28;;;;;;;12.76;82.45;98125.69;5115277;28;20040;-83
2022/09/15 06:48:40;;;;;;;2.92;1.85;;;;;;;12.69;81.84;98114.53;5095433;28;20508;-83
2022/09/15 06:51:08;;;;;;;3.67;2.20;;;;;;;12.92;81.73;98153.88;5094635;28;20052;-82
2022/09/15 06:53:36;;;;;;;3.20;1.73;;;;;;;12.88;82.18;98128.31;5104234;28;20039;-82
2022/09/15 06:56:14;;;;;;;6.55;2.25;;;;;;;13.08;82.22;98136.59;5118303;28;20095;-83
2022/09/15 06:58:42;;;;;;;6.65;2.08;;;;;;;12.76;80.89;98092.78;5117799;28;20073;-82
2022/09/15 07:01:11;;;;;;;4.72;1.83;;;;;;;13.25;80.74;98157.38;5117821;28;20027;-84
2022/09/15 07:03:39;;;;;;;4.13;2.22;;;;;;;13.02;80.63;98133.31;5098475;28;20048;-84
2022/09/15 07:06:07;;;;;;;4.68;2.50;;;;;;;13.08;81.34;98142.88;5115818;28;20384;-96
2022/09/15 07:08:34;;;;;;;3.25;2.00;;;;;;;13.16;80.58;98155.59;5116936;28;20046;-95
2022/09/15 07:11:01;;;;;;;3.05;2.20;;;;;;;13.29;80.67;98163.72;5115311;28;20047;-83
2022/09/15 07:13:27;;;;;;;4.88;2.28;;;;;;;13.17;80.59;98135.22;5116863;28;20260;-95
2022/09/15 07:15:55;;;;;;;5.05;2.42;;;;;;;13.23;80.06;98138.47;5114810;28;20051;-82
2022/09/15 07:18:23;;;;;;;3.35;2.42;;;;;;;13.21;79.59;98137.25;5116529;28;20031;-83
2022/09/15 07:20:49;;;;;;;5.00;2.80;;;;;;;13.43;79.98;98163.22;5116538;28;20527;-82
2022/09/15 07:23:18;;;;;;;5.15;2.28;;;;;;;13.29;79.37;98142.56;5115405;28;20507;-82
2022/09/15 07:25:44;;;;;;;3.92;2.30;;;;;;;13.27;78.97;98153.09;5114421;28;20031;-81
2022/09/15 07:28:13;;;;;;;10.15;2.67;;;;;;;13.30;79.03;98151.59;5114879;28;20036;-81
2022/09/15 07:30:40;;;;;;;6.38;3.35;;;;;;;13.20;79.37;98141.94;5112563;28;20173;-83
2022/09/15 07:33:08;;;;;;;6.45;3.60;;;;;;;13.42;79.84;98167.94;5114184;27;20040;-85
2022/09/15 07:35:43;;;;;;;5.53;3.03;;;;;;;13.40;78.89;98164.75;5113773;28;20035;-82
2022/09/15 07:38:09;;;;;;;5.28;3.10;;;;;;;13.40;79.04;98170.22;5113942;28;20066;-95
2022/09/15 07:40:38;;;;;;;7.50;3.30;;;;;;;13.33;79.66;98165.38;5112908;28;20081;-83
2022/09/15 07:43:06;;;;;;;5.03;3.10;;;;;;;13.33;79.65;98154.41;5113619;28;20043;-83
2022/09/15 07:45:34;;;;;;;6.05;3.55;;;;;;;13.14;79.50;98127.72;5112996;28;20130;-82
2022/09/15 07:48:01;;;;;;;6.07;3.13;;;;;;;13.29;79.64;98159.03;5095324;28;20043;-82
2022/09/15 07:50:27;;;;;;;;;;;;;;;13.36;79.82;98175.66;5113682;28;20164;-82
2022/09/15 07:52:57;;;;;;;6.47;2.87;;;;;;;13.21;79.54;98168.25;5114073;28;20492;-82
2022/09/15 07:55:23;;;;;;;6.10;3.35;;;;;;;13.24;79.75;98163.97;5078468;28;20060;-82
2022/09/15 07:58:03;;;;;;;6.78;2.90;;;;;;;13.34;80.07;98177.16;5094555;28;20083;-82
2022/09/15 08:00:29;;;;;;;4.68;2.90;;;;;;;13.32;80.03;98174.78;5113167;28;20047;-82
2022/09/15 08:02:55;;;;;;;5.28;3.17;;;;;;;13.26;79.45;98178.97;5094575;28;20035;-93
2022/09/15 08:05:26;;;;;;;4.70;3.13;;;;;;;13.20;79.33;98174.06;5094864;28;20047;-80
2022/09/15 08:07:56;;;;;;;5.43;3.45;;;;;;;13.17;78.70;98161.84;5112523;28;20047;-82
2022/09/15 08:10:24;;;;;;;5.90;3.53;;;;;;;13.21;79.83;98157.25;5113668;28;20188;-83
2022/09/15 08:12:51;;;;;;;5.95;3.38;;;;;;;13.36;80.15;98186.63;5083367;28;20032;-93
2022/09/15 08:15:17;;;;;;;9.63;3.78;;;;;;;13.15;79.24;98154.00;5107334;28;20059;-81
2022/09/15 08:17:45;;;;;;;8.88;3.67;;;;;;;13.37;79.23;98182.72;5112595;28;20400;-83
2022/09/15 08:20:12;;;;;;;5.97;3.33;;;;;;;13.37;79.69;98196.44;5112812;28;20416;-85
2022/09/15 08:22:40;;;;;;;6.15;3.75;;;;;;;13.25;79.55;98160.91;5113159;28;20035;-94
2022/09/15 08:25:07;;;;;;;3.92;3.28;;;;;;;13.42;79.24;98186.34;5112769;28;20059;-80
2022/09/15 08:27:33;;;;;;;9.68;3.70;;;;;;;13.33;78.50;98181.84;5113345;28;20078;-81
2022/09/15 08:29:59;;;;;;;5.68;3.80;;;;;;;13.20;78.86;98163.09;5114576;28;20134;-81
2022/09/15 08:32:25;;;;;;;8.65;4.40;;;;;;;13.16;79.29;98160.28;5112507;28;20036;-83
2022/09/15 08:34:51;;;;;;;7.22;4.20;;;;;;;12.93;78.93;98124.50;5112458;28;20067;-81
2022/09/15 08:37:17;;;;;;;5.80;3.70;;;;;;;13.15;78.76;98172.41;5112347;28;20039;-81
2022/09/15 08:39:44;;;;;;;5.32;3.80;;;;;;;13.04;79.61;98157.63;5112538;28;20038;-81
2022/09/15 08:42:15;;;;;;;;;;;;;;;13.25;79.62;98191.09;5112980;28;20054;-87
2022/09/15 08:44:54;;;;;;;6.90;3.67;;;;;;;13.00;79.31;98156.78;5112095;28;19969;-82
2022/09/15 08:47:41;;;;;;;7.72;3.88;;;;;;;13.03;79.91;98147.84;5111744;28;20046;-81
2022/09/15 08:50:23;;;;;;;7.00;4.20;;;;;;;13.15;79.54;98170.47;5090899;28;20043;-82
2022/09/15 08:53:05;;;;;;;8.25;3.72;;;;;;;13.28;79.63;98184.09;5096040;28;20048;-85
2022/09/15 08:55:42;;;;;;;7.32;3.92;;;;;;;13.37;79.39;98188.19;5114995;28;20039;-82
2022/09/15 08:58:36;;;;;;;6.18;3.55;;;;;;;13.37;79.44;98196.44;5116283;28;20050;-90
2022/09/15 09:01:24;;;;;;;5.28;4.03;;;;;;;13.38;79.39;98195.31;5113656;28;20050;-82
2022/09/15 09:04:21;;;;;;;4.85;3.67;;;;;;;13.28;78.86;98186.84;5110398;28;20058;-82
2022/09/15 09:06:53;;;;;;;6.35;3.38;;;;;;;13.27;79.11;98205.22;5114659;28;20047;-82
2022/09/15 09:09:33;;;;;;;8.10;3.42;;;;;;;13.30;79.17;98199.03;5117339;28;20123;-81
2022/09/15 09:12:18;;;;;;;5.65;3.53;;;;;;;13.30;78.97;98207.25;5086280;28;20084;-82
2022/09/15 09:14:44;;;;;;;4.22;3.38;;;;;;;13.23;79.50;98207.06;5116795;28;20552;-82
2022/09/15 09:17:48;;;;;;;5.35;3.55;;;;;;;13.26;78.99;98211.09;5116216;28;20097;-93
2022/09/15 09:20:42;;;;;;;7.97;3.85;;;;;;;13.06;78.89;98191.81;5116146;28;20039;-93
2022/09/15 09:23:18;;;;;;;6.82;3.60;;;;;;;13.00;79.53;98182.25;5082141;28;20026;-92
2022/09/15 09:25:47;;;;;;;6.82;3.92;;;;;;;12.90;79.78;98158.91;5061868;28;20035;-91
2022/09/15 09:28:57;;;;;;;6.20;3.70;;;;;;;13.21;79.97;98211.31;5106899;28;20048;-95
2022/09/15 09:31:26;;;;;;;8.45;3.67;;;;;;;12.78;79.26;98148.06;5100644;28;20132;-91
2022/09/15 09:34:10;;;;;;;6.85;3.78;;;;;;;12.90;78.74;98161.66;5086735;28;20043;-93
2022/09/15 09:36:36;;;;;;;8.07;3.75;;;;;;;13.23;79.08;98222.75;5110035;28;20031;-93
2022/09/15 09:39:04;;;;;;;5.20;3.20;;;;;;;13.15;79.14;98217.09;5102483;28;20048;-94
2022/09/15 09:41:35;;;;;;;7.53;3.42;;;;;;;13.03;78.92;98195.25;5075325;28;20032;-92
2022/09/15 09:44:30;;;;;;;8.27;3.63;;;;;;;12.98;79.47;98164.56;5088397;28;20462;-91
2022/09/15 09:46:58;;;;;;;12.48;3.70;;;;;;;12.79;79.42;98135.94;5102294;28;20137;-92
2022/09/15 09:49:33;;;;;;;14.80;4.40;;;;;;;13.11;79.12;98172.34;5069115;28;20093;-91
2022/09/15 09:52:02;;;;;;;13.70;4.72;;;;;;;13.11;79.26;98169.59;5053412;28;20043;-93
2022/09/15 09:54:38;;;;;;;9.07;4.53;;;;;;;13.25;79.66;98199.31;5082800;28;20027;-92
2022/09/15 09:57:13;;;;;;;6.97;4.70;;;;;;;13.47;80.22;98229.97;5104464;28;20048;-92
2022/09/15 09:59:47;;;;;;;7.10;4.13;;;;;;;13.27;80.54;98220.91;5050956;28;20505;-92
2022/09/15 10:02:30;;;;;;;8.00;4.47;;;;;;;12.75;80.72;98150.69;5054434;28;20036;-92
2022/09/15 10:05:24;;;;;;;9.07;4.57;;;;;;;13.24;80.44;98232.56;5116944;28;20095;-92
2022/09/15 10:07:51;;;;;;;13.02;5.50;;;;;;;12.85;81.01;98172.13;5009192;28;20045;-92
2022/09/15 10:10:24;;;;;;;11.93;4.75;;;;;;;13.34;81.18;98230.13;5037146;28;20144;-92
2022/09/15 10:12:55;;;;;;;8.20;5.30;;;;;;;13.14;81.13;98179.84;5057424;28;20049;-91
2022/09/15 10:15:27;;;;;;;12.05;6.00;;;;;;;13.41;80.72;98207.53;5030588;28;20052;-91
2022/09/15 10:17:55;;;;;;;10.05;5.47;;;;;;;13.32;80.14;98177.53;5015698;28;20473;-93
2022/09/15 10:20:39;;;;;;;8.45;5.43;;;;;;;13.36;80.88;98163.88;5027001;28;20045;-87
2022/09/15 10:23:26;;;;;;;9.10;5.38;;;;;;;13.96;79.36;98241.22;5046084;28;20041;-93
2022/09/15 10:26:16;;;;;;;9.25;4.82;;;;;;;13.58;78.87;98176.13;5041486;28;20057;-92
2022/09/15 10:28:43;;;;;;;12.43;5.25;;;;;;;13.74;77.84;98192.50;5022308;28;20072;-94
2022/09/15 10:31:27;;;;;;;7.50;4.72;;;;;;;13.99;77.86;98212.25;5055628;28;20139;-89
2022/09/15 10:33:53;;;;;;;8.52;4.70;;;;;;;14.09;76.51;98239.13;5055842;28;20077;-91
2022/09/15 10:36:32;;;;;;;6.47;4.33;;;;;;;14.27;76.88;98239.47;5021550;28;20456;-92
2022/09/15 10:39:05;;;;;;;6.30;4.25;;;;;;;14.26;76.56;98243.38;5021392;28;20044;-94
2022/09/15 10:41:58;;;;;;;12.90;4.25;;;;;;;14.08;76.03;98218.31;5040990;28;20036;-87
2022/09/15 10:44:56;;;;;;;9.13;3.65;;;;;;;14.03;75.04;98211.16;5026097;28;20054;-90
2022/09/15 10:48:02;;;;;;;4.50;3.40;;;;;;;14.14;75.46;98227.88;5062812;28;20040;-91
2022/09/15 10:50:53;;;;;;;8.27;4.17;;;;;;;14.32;76.29;98244.69;5072699;28;20074;-90
2022/09/15 10:53:52;;;;;;;13.40;4.47;;;;;;;14.34;75.82;98250.63;5067113;28;20095;-89
2022/09/15 10:56:26;;;;;;;11.23;4.43;;;;;;;14.37;76.06;98233.41;5084739;28;20044;-90
2022/09/15 10:59:31;;;;;;;6.95;4.22;;;;;;;14.48;75.72;98252.84;5083345;28;20044;-90
2022/09/15 11:02:19;;;;;;;7.88;4.20;;;;;;;14.44;75.31;98252.78;5078129;28;20043;-91
2022/09/15 11:05:23;;;;;;;8.85;5.10;;;;;;;14.29;75.69;98232.44;5073325;28;20048;-91
2022/09/15 11:08:13;;;;;;;15.32;4.50;;;;;;;14.47;75.22;98260.31;5005021;28;20597;-93
2022/09/15 11:10:48;;;;;;;8.00;4.28;;;;;;;13.86;75.11;98206.88;4987534;28;20562;-91
2022/09/15 11:13:41;;;;;;;9.55;4.13;;;;;;;14.21;75.80;98266.47;4997483;28;20044;-81
2022/09/15 11:16:46;;;;;;;6.63;4.80;;;;;;;14.20;75.94;98275.84;5044218;28;20123;-94
2022/09/15 11:19:12;;;;;;;9.48;5.15;;;;;;;14.11;75.60;98272.56;5030990;28;20049;-81
2022/09/15 11:21:51;;;;;;;9.70;5.30;;;;;;;14.12;76.96;98270.59;5030212;28;20069;-81
2022/09/15 11:24:33;;;;;;;8.75;5.20;;;;;;;14.13;77.18;98259.22;5030786;28;20037;-82
2022/09/15 11:27:41;;;;;;;8.15;5.50;;;;;;;14.24;76.53;98276.75;5031051;28;20041;-81
2022/09/15 11:30:17;;;;;;;8.63;5.70;;;;;;;13.94;76.43;98261.97;5019852;28;20095;-92
2022/09/15 11:32:54;;;;;;;9.55;5.63;;;;;;;13.92;76.78;98278.03;5022179;28;20052;-81
2022/09/15 11:35:30;;;;;;;;;;;;;;;13.82;77.34;98282.16;5030878;28;20071;-82
2022/09/15 11:38:09;;;;;;;12.37;6.80;;;;;;;13.60;77.33;98278.91;5030502;28;20298;-92
2022/09/15 11:40:42;;;;;;;12.27;6.88;;;;;;;13.45;77.51;98263.28;4997915;28;20041;-84
2022/09/15 11:43:33;;;;;;;11.50;6.88;;;;;;;13.51;77.45;98291.25;5015860;28;20501;-82
2022/09/15 11:46:06;;;;;;;14.50;7.70;;;;;;;13.48;78.11;98286.50;5112318;28;20065;-82
2022/09/15 11:49:04;;;;;;;16.25;7.72;;;;;;;13.52;78.05;98290.91;5113276;28;20062;-81
2022/09/15 11:51:40;;;;;;;21.30;7.18;;;;;;;13.44;77.70;98278.16;5112634;28;20051;-83
2022/09/15 11:54:17;;;;;;;12.65;6.57;;;;;;;13.41;77.59;98276.16;5112370;28;20036;-83
2022/09/15 11:56:46;;;;;;;15.07;6.25;;;;;;;13.55;77.37;98303.91;5094707;28;20416;-82
2022/09/15 11:59:31;;;;;;;11.45;6.65;;;;;;;13.51;77.81;98297.56;5112398;28;20409;-82
2022/09/15 12:02:15;;;;;;;15.52;7.00;;;;;;;13.35;78.20;98281.09;5113044;28;20067;-83
2022/09/15 12:05:11;;;;;;;12.98;6.72;;;;;;;13.30;78.87;98275.88;5112583;27;20130;-82